createdAt,value
2018-05-10T00:01:40.578Z,19.80
2018-05-10T00:04:09.290Z,19.70
2018-05-10T00:06:37.919Z,19.70
2018-05-10T00:09:06.269Z,19.50
2018-05-10T00:11:33.832Z,19.50
2018-05-10T00:14:01.367Z,19.50
2018-05-10T00:16:28.916Z,19.50
2018-05-10T00:18:56.450Z,19.40
2018-05-10T00:21:24.132Z,19.30
2018-05-10T00:23:52.447Z,19.20
2018-05-10T00:26:20.889Z,19.10
2018-05-10T00:28:48.452Z,19.10
2018-05-10T00:31:17.063Z,19.00
2018-05-10T00:33:47.145Z,19.00
2018-05-10T00:36:14.702Z,19.00
2018-05-10T00:38:42.308Z,18.90
2018-05-10T00:41:10.079Z,18.90
2018-05-10T00:43:37.683Z,18.80
2018-05-10T00:46:05.268Z,18.70
2018-05-10T00:48:32.804Z,18.70
2018-05-10T00:51:01.129Z,18.70
2018-05-10T00:53:28.668Z,18.70
2018-05-10T00:55:56.201Z,18.70
2018-05-10T00:58:25.216Z,18.70
2018-05-10T01:00:53.741Z,18.80
2018-05-10T01:03:21.283Z,18.80
2018-05-10T01:05:48.969Z,18.70
2018-05-10T01:08:16.573Z,18.80
2018-05-10T01:10:44.398Z,18.80
2018-05-10T01:13:11.975Z,18.80
2018-05-10T01:15:39.642Z,18.80
2018-05-10T01:18:07.931Z,18.90
2018-05-10T01:20:36.232Z,18.80
2018-05-10T01:23:03.913Z,18.80
2018-05-10T01:25:31.572Z,18.80
2018-05-10T01:27:59.175Z,18.80
2018-05-10T01:30:26.706Z,18.80
2018-05-10T01:32:54.487Z,18.80
2018-05-10T01:35:34.873Z,18.70
2018-05-10T01:38:02.487Z,18.60
2018-05-10T01:40:30.025Z,18.60
2018-05-10T01:42:57.564Z,18.60
2018-05-10T01:45:25.106Z,18.60
2018-05-10T01:47:53.403Z,18.50
2018-05-10T01:50:21.757Z,18.50
2018-05-10T01:52:49.288Z,18.50
2018-05-10T01:55:17.657Z,18.40
2018-05-10T01:57:45.367Z,18.40
2018-05-10T02:00:13.004Z,18.40
2018-05-10T02:02:40.665Z,18.40
2018-05-10T02:05:08.965Z,18.30
2018-05-10T02:07:37.319Z,18.30
2018-05-10T02:10:04.926Z,18.30
2018-05-10T02:12:32.492Z,18.30
2018-05-10T02:15:00.035Z,18.30
2018-05-10T02:17:27.616Z,18.30
2018-05-10T02:19:55.309Z,18.30
2018-05-10T02:22:23.606Z,18.20
2018-05-10T02:24:52.019Z,18.20
2018-05-10T02:27:20.373Z,18.10
2018-05-10T02:29:48.120Z,18.10
2018-05-10T02:32:15.661Z,18.10
2018-05-10T02:34:43.216Z,18.10
2018-05-10T02:37:10.824Z,18.10
2018-05-10T02:39:38.564Z,18.00
2018-05-10T02:42:06.168Z,18.00
2018-05-10T02:44:33.878Z,17.90
2018-05-10T02:47:01.504Z,17.90
2018-05-10T02:49:29.852Z,17.90
2018-05-10T02:51:57.389Z,17.80
2018-05-10T02:54:25.792Z,17.90
2018-05-10T02:56:53.368Z,17.80
2018-05-10T02:59:20.937Z,17.80
2018-05-10T03:01:48.524Z,17.80
2018-05-10T03:04:16.153Z,17.70
2018-05-10T03:06:43.836Z,17.70
2018-05-10T03:09:11.399Z,17.70
2018-05-10T03:11:38.948Z,17.70
2018-05-10T03:14:06.506Z,17.70
2018-05-10T03:16:34.043Z,17.70
2018-05-10T03:19:01.584Z,17.70
2018-05-10T03:21:29.123Z,17.70
2018-05-10T03:23:56.656Z,17.70
2018-05-10T03:26:24.197Z,17.60
2018-05-10T03:28:52.514Z,17.60
2018-05-10T03:31:20.833Z,17.60
2018-05-10T03:33:49.155Z,17.60
2018-05-10T03:36:16.720Z,17.60
2018-05-10T03:38:44.295Z,17.50
2018-05-10T03:41:12.614Z,17.40
2018-05-10T03:43:40.151Z,17.40
2018-05-10T03:46:07.703Z,17.40
2018-05-10T03:48:35.358Z,17.40
2018-05-10T03:51:04.203Z,17.30
2018-05-10T03:53:31.739Z,17.30
2018-05-10T03:56:00.044Z,17.30
2018-05-10T03:58:29.703Z,17.30
2018-05-10T04:00:57.338Z,17.30
2018-05-10T04:06:41.472Z,17.30
2018-05-10T04:09:21.177Z,17.30
2018-05-10T04:11:49.517Z,17.30
2018-05-10T04:14:17.059Z,17.30
2018-05-10T04:16:45.362Z,17.30
2018-05-10T04:19:13.668Z,17.20
2018-05-10T04:21:41.978Z,17.20
2018-05-10T04:24:09.523Z,17.20
2018-05-10T04:26:37.065Z,17.20
2018-05-10T04:29:04.664Z,17.30
2018-05-10T04:31:32.204Z,17.30
2018-05-10T04:34:00.511Z,17.40
2018-05-10T04:36:28.871Z,17.40
2018-05-10T04:38:56.413Z,17.40
2018-05-10T04:41:23.985Z,17.50
2018-05-10T04:43:52.279Z,17.60
2018-05-10T04:46:19.821Z,17.60
2018-05-10T04:48:48.131Z,17.70
2018-05-10T04:51:15.783Z,17.70
2018-05-10T04:53:43.327Z,17.70
2018-05-10T04:56:10.964Z,17.70
2018-05-10T04:58:38.520Z,17.70
2018-05-10T05:01:06.925Z,17.80
2018-05-10T05:03:35.263Z,17.80
2018-05-10T05:06:02.949Z,17.80
2018-05-10T05:08:30.497Z,17.90
2018-05-10T05:10:58.831Z,18.00
2018-05-10T05:13:26.385Z,18.00
2018-05-10T05:15:54.717Z,18.10
2018-05-10T05:18:22.252Z,18.00
2018-05-10T05:20:49.962Z,18.10
2018-05-10T05:23:18.571Z,18.10
2018-05-10T05:25:46.979Z,18.10
2018-05-10T05:28:15.266Z,18.20
2018-05-10T05:30:43.632Z,18.20
2018-05-10T05:33:11.172Z,18.20
2018-05-10T05:35:39.637Z,18.30
2018-05-10T05:38:07.103Z,18.30
2018-05-10T05:40:34.639Z,18.30
2018-05-10T05:43:02.984Z,18.40
2018-05-10T05:45:30.547Z,18.30
2018-05-10T05:47:58.164Z,18.50
2018-05-10T05:50:25.707Z,18.60
2018-05-10T05:52:54.027Z,18.70
2018-05-10T05:55:22.341Z,18.80
2018-05-10T05:57:50.649Z,19.00
2018-05-10T06:00:19.000Z,19.10
2018-05-10T06:02:46.552Z,19.10
2018-05-10T06:05:14.878Z,19.40
2018-05-10T06:07:42.679Z,19.40
2018-05-10T06:10:10.646Z,19.50
2018-05-10T06:12:39.289Z,19.70
2018-05-10T06:15:07.088Z,19.70
2018-05-10T06:17:35.077Z,19.70
2018-05-10T06:20:02.859Z,19.80
2018-05-10T06:22:31.445Z,19.90
2018-05-10T06:25:00.246Z,20.30
2018-05-10T06:27:30.641Z,20.60
2018-05-10T06:29:59.431Z,20.60
2018-05-10T06:32:27.249Z,20.80
2018-05-10T06:34:55.284Z,20.90
2018-05-10T06:37:23.373Z,20.90
2018-05-10T06:39:52.118Z,21.00
2018-05-10T06:42:20.763Z,21.30
2018-05-10T06:44:48.658Z,21.30
2018-05-10T06:47:17.379Z,21.50
2018-05-10T06:49:45.273Z,21.60
2018-05-10T06:52:13.219Z,21.80
2018-05-10T06:54:43.066Z,22.00
2018-05-10T06:57:11.324Z,22.20
2018-05-10T06:59:39.131Z,22.30
2018-05-10T07:02:07.706Z,22.60
2018-05-10T07:04:35.769Z,22.50
2018-05-10T07:07:03.351Z,22.80
2018-05-10T07:09:30.945Z,23.00
2018-05-10T07:11:58.588Z,23.20
2018-05-10T07:14:26.471Z,23.40
2018-05-10T07:16:54.122Z,23.60
2018-05-10T07:19:21.704Z,23.90
2018-05-10T07:21:49.247Z,24.10
2018-05-10T07:24:16.787Z,24.20
2018-05-10T07:26:44.348Z,24.40
2018-05-10T07:29:11.884Z,24.50
2018-05-10T07:31:40.747Z,24.80
2018-05-10T07:34:08.287Z,24.80
2018-05-10T07:36:36.645Z,24.50
2018-05-10T07:39:04.196Z,24.50
2018-05-10T07:41:32.604Z,24.20
2018-05-10T07:44:00.908Z,24.10
2018-05-10T07:46:29.218Z,24.10
2018-05-10T07:48:56.760Z,24.00
2018-05-10T07:51:24.310Z,24.00
2018-05-10T07:53:51.844Z,24.10
2018-05-10T07:56:19.554Z,24.10
2018-05-10T07:58:47.857Z,24.10
2018-05-10T08:01:16.161Z,24.10
2018-05-10T08:03:44.485Z,24.20
2018-05-10T08:06:12.832Z,24.30
2018-05-10T08:08:40.413Z,24.30
2018-05-10T08:11:07.965Z,24.50
2018-05-10T08:13:35.515Z,24.80
2018-05-10T08:16:03.865Z,25.10
2018-05-10T08:18:31.408Z,25.10
2018-05-10T08:20:59.708Z,25.50
2018-05-10T08:23:28.038Z,25.70
2018-05-10T08:25:55.571Z,25.70
2018-05-10T08:28:23.115Z,25.70
2018-05-10T08:30:50.651Z,25.80
2018-05-10T08:33:19.190Z,26.00
2018-05-10T08:35:46.731Z,26.00
2018-05-10T08:38:14.283Z,26.40
2018-05-10T08:40:41.868Z,26.60
2018-05-10T08:43:09.407Z,26.80
2018-05-10T08:45:36.954Z,26.90
2018-05-10T08:48:04.499Z,27.00
2018-05-10T08:50:32.040Z,27.00
2018-05-10T08:52:59.651Z,27.10
2018-05-10T08:55:27.964Z,27.40
2018-05-10T08:57:56.292Z,27.70
2018-05-10T09:00:23.827Z,27.70
2018-05-10T09:02:52.181Z,28.10
2018-05-10T09:05:19.906Z,28.10
2018-05-10T09:07:47.426Z,28.30
2018-05-10T09:10:14.973Z,28.50
2018-05-10T09:12:42.579Z,28.70
2018-05-10T09:15:10.147Z,28.80
2018-05-10T09:17:38.479Z,29.10
2018-05-10T09:20:06.040Z,29.10
2018-05-10T09:22:33.609Z,29.30
2018-05-10T09:25:01.952Z,29.60
2018-05-10T09:27:29.515Z,29.60
2018-05-10T09:29:57.847Z,29.70
2018-05-10T09:32:25.400Z,29.60
2018-05-10T09:34:52.961Z,29.70
2018-05-10T09:37:20.520Z,29.70
2018-05-10T09:39:48.082Z,29.40
2018-05-10T09:42:15.637Z,29.30
2018-05-10T09:44:43.960Z,29.40
2018-05-10T09:47:11.518Z,29.40
2018-05-10T09:49:39.851Z,29.50
2018-05-10T09:52:07.402Z,29.50
2018-05-10T09:54:35.739Z,29.60
2018-05-10T09:57:03.305Z,29.60
2018-05-10T09:59:31.726Z,29.70
2018-05-10T10:01:59.279Z,29.70
2018-05-10T10:04:26.838Z,29.90
2018-05-10T10:06:54.397Z,30.10
2018-05-10T10:09:21.959Z,30.20
2018-05-10T10:11:50.289Z,30.60
2018-05-10T10:14:18.039Z,30.60
2018-05-10T10:16:45.594Z,30.80
2018-05-10T10:19:13.140Z,31.00
2018-05-10T10:21:40.774Z,31.20
2018-05-10T10:24:08.319Z,31.40
2018-05-10T10:26:35.883Z,31.60
2018-05-10T10:29:03.439Z,31.90
2018-05-10T10:31:31.024Z,31.90
2018-05-10T10:33:58.585Z,31.70
2018-05-10T10:36:26.222Z,31.60
2018-05-10T10:38:53.768Z,31.40
2018-05-10T10:41:21.331Z,31.30
2018-05-10T10:43:48.898Z,31.20
2018-05-10T10:46:16.501Z,30.90
2018-05-10T10:48:44.052Z,30.50
2018-05-10T10:51:11.644Z,30.10
2018-05-10T10:53:39.219Z,29.80
2018-05-10T10:56:07.571Z,28.60
2018-05-10T10:58:35.135Z,28.60
2018-05-10T11:01:02.735Z,28.10
2018-05-10T11:03:30.345Z,27.60
2018-05-10T11:05:58.035Z,27.30
2018-05-10T11:08:25.623Z,26.90
2018-05-10T11:10:53.159Z,26.70
2018-05-10T11:13:21.502Z,26.70
2018-05-10T11:15:49.096Z,26.70
2018-05-10T11:18:16.638Z,26.70
2018-05-10T11:20:44.990Z,26.60
2018-05-10T11:23:13.248Z,26.40
2018-05-10T11:25:40.903Z,26.40
2018-05-10T11:28:08.469Z,26.30
2018-05-10T11:30:36.021Z,26.20
2018-05-10T11:33:04.372Z,26.10
2018-05-10T11:35:31.925Z,26.00
2018-05-10T11:37:59.547Z,25.80
2018-05-10T11:40:27.080Z,25.70
2018-05-10T11:42:54.888Z,25.40
2018-05-10T11:45:22.408Z,25.20
2018-05-10T11:47:50.042Z,25.10
2018-05-10T11:50:17.658Z,25.00
2018-05-10T11:52:45.375Z,24.90
2018-05-10T11:55:12.954Z,24.70
2018-05-10T11:57:40.533Z,24.60
2018-05-10T12:00:08.195Z,24.60
2018-05-10T12:02:36.591Z,23.70
2018-05-10T12:05:04.118Z,23.60
2018-05-10T12:07:31.710Z,23.30
2018-05-10T12:09:59.369Z,23.00
2018-05-10T12:12:27.181Z,22.50
2018-05-10T12:14:55.612Z,22.00
2018-05-10T12:17:23.161Z,22.00
2018-05-10T12:19:50.859Z,21.90
2018-05-10T12:22:18.580Z,21.50
2018-05-10T12:24:46.246Z,21.30
2018-05-10T12:27:14.548Z,20.70
2018-05-10T12:29:42.848Z,20.40
2018-05-10T12:32:11.143Z,20.30
2018-05-10T12:34:39.483Z,20.10
2018-05-10T12:37:07.018Z,20.10
2018-05-10T12:39:34.563Z,19.90
2018-05-10T12:42:02.104Z,19.70
2018-05-10T12:44:29.675Z,19.40
2018-05-10T12:46:57.239Z,19.10
2018-05-10T12:49:24.798Z,18.80
2018-05-10T12:51:52.424Z,18.60
2018-05-10T12:54:20.131Z,18.50
2018-05-10T12:56:47.863Z,18.50
2018-05-10T12:59:16.228Z,18.30
2018-05-10T13:01:43.798Z,18.30
2018-05-10T13:04:11.327Z,18.40
2018-05-10T13:06:38.932Z,18.40
2018-05-10T13:09:07.212Z,18.10
2018-05-10T13:11:34.760Z,18.10
2018-05-10T13:14:02.315Z,17.90
2018-05-10T13:16:30.624Z,17.60
2018-05-10T13:18:59.037Z,17.60
2018-05-10T13:24:00.428Z,17.60
2018-05-10T13:26:27.987Z,17.60
2018-05-10T13:28:55.620Z,17.60
2018-05-10T13:31:23.118Z,17.70
2018-05-10T13:33:50.647Z,17.80
2018-05-10T13:36:18.210Z,17.90
2018-05-10T13:38:45.751Z,17.90
2018-05-10T13:41:13.303Z,17.80
2018-05-10T13:43:41.600Z,17.80
2018-05-10T13:46:09.895Z,17.80
2018-05-10T13:48:38.027Z,17.80
2018-05-10T13:51:06.429Z,18.00
2018-05-10T13:53:34.007Z,18.00
2018-05-10T13:56:02.295Z,18.00
2018-05-10T13:58:30.598Z,17.90
2018-05-10T14:00:58.904Z,18.00
2018-05-10T14:03:27.351Z,18.10
2018-05-10T14:05:54.931Z,18.10
2018-05-10T14:08:22.465Z,18.10
2018-05-10T14:10:50.031Z,18.10
2018-05-10T14:13:17.557Z,18.10
2018-05-10T14:15:45.227Z,18.20
2018-05-10T14:18:13.712Z,18.20
2018-05-10T14:20:41.277Z,18.20
2018-05-10T14:23:09.736Z,18.20
2018-05-10T14:25:37.311Z,18.20
2018-05-10T14:28:05.752Z,18.20
2018-05-10T14:30:33.286Z,18.20
2018-05-10T14:33:00.847Z,18.20
2018-05-10T14:35:29.142Z,18.30
2018-05-10T14:37:56.675Z,18.30
2018-05-10T14:40:24.216Z,18.40
2018-05-10T14:42:51.756Z,18.30
2018-05-10T14:45:19.464Z,18.30
2018-05-10T14:47:47.804Z,18.40
2018-05-10T14:50:15.340Z,18.40
2018-05-10T14:52:43.678Z,18.50
2018-05-10T14:55:11.244Z,18.50
2018-05-10T14:57:38.781Z,18.60
2018-05-10T15:00:06.323Z,18.70
2018-05-10T15:02:33.848Z,18.80
2018-05-10T15:05:01.390Z,19.00
2018-05-10T15:07:29.678Z,19.10
2018-05-10T15:09:58.032Z,19.20
2018-05-10T15:12:25.527Z,19.20
2018-05-10T15:14:53.161Z,19.30
2018-05-10T15:17:21.458Z,19.40
2018-05-10T15:19:49.795Z,19.50
2018-05-10T15:22:17.335Z,19.50
2018-05-10T15:24:45.771Z,19.70
2018-05-10T15:27:13.396Z,19.60
2018-05-10T15:29:41.025Z,19.70
2018-05-10T15:32:09.337Z,20.00
2018-05-10T15:34:36.863Z,19.90
2018-05-10T15:37:04.414Z,20.10
2018-05-10T15:39:32.184Z,20.00
2018-05-10T15:41:59.807Z,20.10
2018-05-10T15:44:27.370Z,20.10
2018-05-10T15:46:54.917Z,20.10
2018-05-10T15:49:23.213Z,19.90
2018-05-10T15:51:51.008Z,19.90
2018-05-10T15:54:19.228Z,19.80
2018-05-10T15:56:47.554Z,19.90
2018-05-10T15:59:15.112Z,19.80
2018-05-10T16:01:43.413Z,19.90
2018-05-10T16:04:11.769Z,19.90
2018-05-10T16:06:39.336Z,19.90
2018-05-10T16:09:06.988Z,19.90
2018-05-10T16:11:34.527Z,19.90
2018-05-10T16:14:02.067Z,19.90
2018-05-10T16:16:29.632Z,19.90
2018-05-10T16:18:57.932Z,19.80
2018-05-10T16:21:25.487Z,19.80
2018-05-10T16:23:53.030Z,19.90
2018-05-10T16:26:20.728Z,19.90
2018-05-10T16:28:48.202Z,20.00
2018-05-10T16:31:15.871Z,20.00
2018-05-10T16:33:43.832Z,20.10
2018-05-10T16:36:11.452Z,20.20
2018-05-10T16:38:39.004Z,20.20
2018-05-10T16:41:06.612Z,20.30
2018-05-10T16:43:34.971Z,20.30
2018-05-10T16:46:03.218Z,20.30
2018-05-10T16:48:31.502Z,20.30
2018-05-10T16:50:59.091Z,20.30
2018-05-10T16:53:27.467Z,20.30
2018-05-10T16:55:55.765Z,20.30
2018-05-10T16:58:23.307Z,20.30
2018-05-10T17:00:50.860Z,20.30
2018-05-10T17:03:18.432Z,20.30
2018-05-10T17:05:45.979Z,20.10
2018-05-10T17:08:14.280Z,19.90
2018-05-10T17:10:42.592Z,19.70
2018-05-10T17:13:10.896Z,19.50
2018-05-10T17:15:38.454Z,19.50
2018-05-10T17:18:05.995Z,19.30
2018-05-10T17:20:33.544Z,19.10
2018-05-10T17:23:01.094Z,19.10
2018-05-10T17:25:28.692Z,19.00
2018-05-10T17:27:56.998Z,18.70
2018-05-10T17:30:25.398Z,18.70
2018-05-10T17:32:53.796Z,18.70
2018-05-10T17:35:21.487Z,18.70
2018-05-10T17:37:49.061Z,18.70
2018-05-10T17:40:16.628Z,18.60
2018-05-10T17:42:44.180Z,18.50
2018-05-10T17:45:11.725Z,18.40
2018-05-10T17:47:39.266Z,18.30
2018-05-10T17:50:06.836Z,18.20
2018-05-10T17:52:34.718Z,18.30
2018-05-10T17:55:03.017Z,18.00
2018-05-10T17:57:31.416Z,18.00
2018-05-10T17:59:59.780Z,17.90
2018-05-10T18:02:27.333Z,17.90
2018-05-10T18:04:54.885Z,17.90
2018-05-10T18:07:23.280Z,18.00
2018-05-10T18:09:50.749Z,18.00
2018-05-10T18:12:18.467Z,18.00
2018-05-10T18:14:46.777Z,18.10
2018-05-10T18:17:14.663Z,18.10
2018-05-10T18:19:42.369Z,18.20
2018-05-10T18:22:10.155Z,18.30
2018-05-10T18:24:37.698Z,18.30
2018-05-10T18:27:06.074Z,18.40
2018-05-10T18:29:33.643Z,18.40
2018-05-10T18:32:01.240Z,18.50
2018-05-10T18:34:28.772Z,18.60
2018-05-10T18:36:57.068Z,18.60
2018-05-10T18:39:25.393Z,18.50
2018-05-10T18:41:52.931Z,18.50
2018-05-10T18:44:20.546Z,18.40
2018-05-10T18:46:48.032Z,18.40
2018-05-10T18:49:16.346Z,18.30
2018-05-10T18:51:43.872Z,18.20
2018-05-10T18:54:11.520Z,18.10
2018-05-10T18:56:39.058Z,18.00
2018-05-10T18:59:06.830Z,17.90
2018-05-10T19:01:34.372Z,17.80
2018-05-10T19:04:01.918Z,17.70
2018-05-10T19:06:29.458Z,17.80
2018-05-10T19:08:57.001Z,17.70
2018-05-10T19:11:25.311Z,17.70
2018-05-10T19:13:52.864Z,17.80
2018-05-10T19:16:20.408Z,17.70
2018-05-10T19:18:47.946Z,17.60
2018-05-10T19:21:16.313Z,17.50
2018-05-10T19:23:43.856Z,17.40
2018-05-10T19:26:12.163Z,17.20
2018-05-10T19:28:40.484Z,17.20
2018-05-10T19:31:08.790Z,17.10
2018-05-10T19:33:37.089Z,17.20
2018-05-10T19:36:05.408Z,17.30
2018-05-10T19:38:33.024Z,17.20
2018-05-10T19:41:00.563Z,17.20
2018-05-10T19:43:28.866Z,17.20
2018-05-10T19:45:57.234Z,17.00
2018-05-10T19:48:24.780Z,17.00
2018-05-10T19:50:52.322Z,16.90
2018-05-10T19:53:20.629Z,16.70
2018-05-10T19:55:48.939Z,16.70
2018-05-10T19:58:17.281Z,16.80
2018-05-10T20:00:44.815Z,16.80
2018-05-10T20:03:12.360Z,16.90
2018-05-10T20:05:39.907Z,16.90
2018-05-10T20:08:07.460Z,16.90
2018-05-10T20:10:34.994Z,16.90
2018-05-10T20:13:02.545Z,16.90
2018-05-10T20:15:30.094Z,16.80
2018-05-10T20:17:57.635Z,16.90
2018-05-10T20:20:25.936Z,17.00
2018-05-10T20:22:53.476Z,17.00
2018-05-10T20:25:21.024Z,17.00
2018-05-10T20:27:48.564Z,17.00
2018-05-10T20:30:16.116Z,17.00
2018-05-10T20:32:43.654Z,16.90
2018-05-10T20:35:11.975Z,16.80
2018-05-10T20:37:39.522Z,16.80
2018-05-10T20:40:07.074Z,16.80
2018-05-10T20:42:34.629Z,16.60
2018-05-10T20:45:03.033Z,16.50
2018-05-10T20:47:31.369Z,16.60
2018-05-10T20:49:58.905Z,16.50
2018-05-10T20:52:27.223Z,16.50
2018-05-10T20:54:54.772Z,16.50
2018-05-10T20:57:22.307Z,16.40
2018-05-10T20:59:49.848Z,16.40
2018-05-10T21:02:18.178Z,16.20
2018-05-10T21:04:46.004Z,16.20
2018-05-10T21:07:13.545Z,16.20
2018-05-10T21:09:41.083Z,16.20
2018-05-10T21:12:08.635Z,16.20
2018-05-10T21:14:36.177Z,16.20
2018-05-10T21:17:04.620Z,16.20
2018-05-10T21:19:32.160Z,16.20
2018-05-10T21:21:59.696Z,16.20
2018-05-10T21:24:28.009Z,16.10
2018-05-10T21:26:55.551Z,16.10
2018-05-10T21:29:23.862Z,16.20
2018-05-10T21:31:51.444Z,16.20
2018-05-10T21:34:19.061Z,16.20
2018-05-10T21:36:46.636Z,16.30
2018-05-10T21:39:14.175Z,16.20
2018-05-10T21:41:42.480Z,16.20
2018-05-10T21:44:10.898Z,16.20
2018-05-10T21:46:39.250Z,16.20
2018-05-10T21:52:18.104Z,16.30
2018-05-10T21:54:45.658Z,16.30
2018-05-10T21:57:13.284Z,16.30
2018-05-10T21:59:40.929Z,16.30
2018-05-10T22:02:09.266Z,16.40
2018-05-10T22:04:36.927Z,16.40
2018-05-10T22:07:04.544Z,16.40
2018-05-10T22:09:32.100Z,16.30
2018-05-10T22:11:59.651Z,16.30
2018-05-10T22:14:27.219Z,16.30
2018-05-10T22:16:54.959Z,16.30
2018-05-10T22:19:22.544Z,16.30
2018-05-10T22:21:50.158Z,16.40
2018-05-10T22:24:17.748Z,16.40
2018-05-10T22:26:45.313Z,16.40
2018-05-10T22:29:12.859Z,16.40
2018-05-10T22:31:42.020Z,16.40
2018-05-10T22:34:10.361Z,16.40
2018-05-10T22:36:38.010Z,16.30
2018-05-10T22:39:06.324Z,16.40
2018-05-10T22:41:34.643Z,16.40
2018-05-10T22:44:02.260Z,16.30
2018-05-10T22:46:29.843Z,16.40
2018-05-10T22:48:57.498Z,16.50
2018-05-10T22:51:25.835Z,16.50
2018-05-10T22:53:53.487Z,16.50
2018-05-10T22:56:21.811Z,16.50
2018-05-10T22:58:49.439Z,16.50
2018-05-10T23:01:16.995Z,16.50
2018-05-10T23:03:44.607Z,16.50
2018-05-10T23:06:12.226Z,16.50
2018-05-10T23:08:39.819Z,16.40
2018-05-10T23:11:07.547Z,16.40
2018-05-10T23:13:35.175Z,16.30
2018-05-10T23:16:02.743Z,16.30
2018-05-10T23:18:30.307Z,16.30
2018-05-10T23:20:58.627Z,16.20
2018-05-10T23:23:26.191Z,16.20
2018-05-10T23:25:54.614Z,16.30
2018-05-10T23:28:22.233Z,16.20
2018-05-10T23:30:49.810Z,16.30
2018-05-10T23:33:17.366Z,16.30
2018-05-10T23:35:45.676Z,16.40
2018-05-10T23:38:14.011Z,16.50
2018-05-10T23:40:41.562Z,16.50
2018-05-10T23:43:09.170Z,16.50
2018-05-10T23:45:37.573Z,16.60
2018-05-10T23:48:05.874Z,16.60
2018-05-10T23:50:34.254Z,16.70
2018-05-10T23:53:03.363Z,16.60
2018-05-10T23:55:30.979Z,16.60
2018-05-10T23:57:58.596Z,16.60
